< < Back
Terminal Aerodrome Forecast


Current Version              Previous Versions:   1  2  3  4  5  6  7  8  9  

Terminal Aerodrome Forecast

183
FTUS42 KCHS 041740
TAFSAV
TAF
KSAV 041740Z 0418/0518 21012G20KT P6SM SCT025 BKN040
     FM042200 17016KT P6SM SCT040 SCT250
     FM050100 20007KT P6SM FEW020 SCT250 WS015/25035KT
     FM050800 21007KT 5SM BR SCT003 OVC010 WS015/25035KT
     FM051600 21012G20KT P6SM SCT020 BKN035=

Latest METAR

409
SAUS80 KWBC 050000 RRA
MTRSAV
METAR KSAV 042353Z 17011KT 10SM FEW065 BKN250 21/17 A2999 RMK AO2 SLP156
T02110167 10289 20211 55001


USA.gov is the U.S. government's official web portal to all federal, state and local government web resources and services.